Time;durP1;ratioP1;P1;durP2;ratioP2;P2;SDS_P1;SDS_P2;PMS_P1;PMS_P2;Temp;Humidity;BMP_temperature;BMP_pressure;BME280_temperature;BME280_humidity;BME280_pressure;Samples;Min_cycle;Max_cycle;Signal;HPM_P1;HPM_P2
2020/12/22 00:00:51;;;;;;;0.80;0.70;;;;;;;6.41;94.96;100785.44;5054568;28;20494;-71
2020/12/22 00:03:18;;;;;;;0.50;0.50;;;;;;;6.46;94.44;100787.31;5055490;28;20469;-70
2020/12/22 00:05:45;;;;;;;0.40;0.40;;;;;;;6.42;94.52;100786.22;5055700;28;20442;-71
2020/12/22 00:08:11;;;;;;;1.90;1.80;;;;;;;6.47;94.26;100770.13;5055389;28;21013;-71
2020/12/22 00:10:38;;;;;;;5.37;1.57;;;;;;;6.46;93.99;100763.09;5055567;28;20493;-71
2020/12/22 00:13:04;;;;;;;0.40;0.40;;;;;;;6.46;93.96;100768.47;5055552;28;20532;-71
2020/12/22 00:15:30;;;;;;;3.70;2.00;;;;;;;6.47;93.35;100756.66;5055517;28;20442;-72
2020/12/22 00:17:57;;;;;;;1.43;0.77;;;;;;;6.47;94.13;100753.97;5055222;28;21017;-72
2020/12/22 00:20:24;;;;;;;2.00;0.77;;;;;;;6.42;93.81;100749.41;5055227;28;20532;-71
2020/12/22 00:22:51;;;;;;;0.93;0.60;;;;;;;6.41;94.37;100755.03;5055166;28;20893;-71
2020/12/22 00:25:17;;;;;;;1.33;0.83;;;;;;;6.44;94.55;100739.16;5055302;28;20454;-71
2020/12/22 00:27:43;;;;;;;1.80;1.17;;;;;;;6.50;94.41;100731.88;5055306;28;20449;-71
2020/12/22 00:30:10;;;;;;;0.70;0.57;;;;;;;6.48;94.18;100728.66;5055249;28;20490;-72
2020/12/22 00:32:36;;;;;;;0.50;0.47;;;;;;;6.46;94.42;100720.03;5055047;28;20998;-71
2020/12/22 00:35:03;;;;;;;6.30;1.73;;;;;;;6.51;94.47;100722.75;5054897;28;20442;-71
2020/12/22 00:37:30;;;;;;;3.37;0.90;;;;;;;6.54;93.87;100725.69;5055357;28;20798;-71
2020/12/22 00:39:56;;;;;;;3.07;0.90;;;;;;;6.57;94.25;100725.16;5054735;28;20951;-72
2020/12/22 00:42:22;;;;;;;0.87;0.70;;;;;;;6.56;94.36;100725.44;5054684;28;20612;-72
2020/12/22 00:44:49;;;;;;;2.30;0.90;;;;;;;6.61;93.98;100711.16;5054733;28;20450;-71
2020/12/22 00:47:15;;;;;;;0.40;0.40;;;;;;;6.63;94.13;100693.66;5054720;28;20440;-71
2020/12/22 00:49:41;;;;;;;1.13;0.80;;;;;;;6.58;94.52;100689.09;5054906;28;20441;-71
2020/12/22 00:52:07;;;;;;;2.00;0.67;;;;;;;6.65;94.26;100686.13;5054382;28;21007;-71
2020/12/22 00:54:34;;;;;;;2.63;1.57;;;;;;;6.72;93.87;100686.63;5054815;28;20473;-71
2020/12/22 00:57:00;;;;;;;1.33;1.23;;;;;;;6.70;93.87;100688.00;5054785;28;20442;-71
2020/12/22 00:59:26;;;;;;;1.27;0.40;;;;;;;6.71;93.65;100690.41;5054705;28;20457;-71
2020/12/22 01:01:52;;;;;;;1.53;0.63;;;;;;;6.74;93.67;100679.13;5054275;28;20995;-71
2020/12/22 01:04:19;;;;;;;1.60;0.90;;;;;;;6.77;93.67;100664.28;5054579;28;20920;-71
2020/12/22 01:06:45;;;;;;;0.40;0.40;;;;;;;6.71;94.04;100651.94;5054590;28;20466;-71
2020/12/22 01:09:11;;;;;;;2.83;1.13;;;;;;;6.71;93.63;100655.44;5054552;28;20477;-71
2020/12/22 01:11:40;;;;;;;1.03;0.93;;;;;;;6.74;93.45;100651.41;5054176;28;20517;-71
2020/12/22 01:14:07;;;;;;;0.63;0.63;;;;;;;6.75;93.34;100647.63;5054444;28;20465;-71
2020/12/22 01:16:33;;;;;;;0.90;0.87;;;;;;;6.78;93.30;100645.19;5054410;28;20485;-71
2020/12/22 01:19:00;;;;;;;6.13;1.40;;;;;;;6.80;93.29;100644.91;5054324;28;20434;-71
2020/12/22 01:21:26;;;;;;;1.67;1.33;;;;;;;6.76;92.62;100643.84;5054117;28;20489;-71
2020/12/22 01:23:52;;;;;;;0.90;0.90;;;;;;;6.73;93.47;100644.38;5053981;28;21012;-71
2020/12/22 01:26:19;;;;;;;0.40;0.30;;;;;;;6.75;92.78;100642.22;5054220;28;20473;-71
2020/12/22 01:28:46;;;;;;;0.60;0.60;;;;;;;6.82;93.34;100623.91;5053874;28;20434;-71
2020/12/22 01:31:19;;;;;;;0.60;0.40;;;;;;;6.90;93.58;100617.13;5054058;28;20527;-71
2020/12/22 01:33:45;;;;;;;1.80;0.93;;;;;;;6.97;93.02;100618.47;5054131;28;20489;-71
2020/12/22 01:36:11;;;;;;;1.03;0.93;;;;;;;7.04;92.76;100615.47;5054043;28;20880;-71
2020/12/22 01:38:37;;;;;;;2.30;1.00;;;;;;;7.11;92.75;100620.56;5053977;28;20963;-71
2020/12/22 01:41:03;;;;;;;1.10;0.90;;;;;;;7.13;92.92;100616.50;5053870;28;20469;-71
2020/12/22 01:43:30;;;;;;;0.90;0.70;;;;;;;7.16;92.31;100610.53;5053865;28;20439;-71
2020/12/22 01:45:57;;;;;;;0.40;0.30;;;;;;;7.23;91.85;100605.69;5053596;28;20473;-71
2020/12/22 01:48:23;;;;;;;2.93;1.53;;;;;;;7.26;91.61;100594.34;5053763;28;20469;-71
2020/12/22 01:50:49;;;;;;;1.13;0.93;;;;;;;7.20;92.44;100578.47;5053731;28;20897;-71
2020/12/22 01:53:15;;;;;;;1.40;1.30;;;;;;;7.27;91.90;100577.09;5053334;28;20530;-71
2020/12/22 01:55:42;;;;;;;0.50;0.50;;;;;;;7.33;92.07;100572.47;5053426;28;20943;-71
2020/12/22 01:58:09;;;;;;;1.70;1.27;;;;;;;7.34;92.29;100566.78;5053651;28;20438;-71
2020/12/22 02:00:35;;;;;;;3.40;1.07;;;;;;;7.37;92.29;100572.72;5053507;28;20493;-71
2020/12/22 02:03:05;;;;;;;1.23;1.00;;;;;;;7.33;92.46;100567.88;5053232;28;20445;-71
2020/12/22 02:05:32;;;;;;;1.03;0.53;;;;;;;7.36;92.83;100563.84;5053201;28;20442;-71
2020/12/22 02:07:59;;;;;;;1.27;1.17;;;;;;;7.34;94.07;100569.50;5053492;28;20446;-70
2020/12/22 02:10:25;;;;;;;1.00;0.60;;;;;;;7.26;94.69;100562.03;5053368;28;20508;-71
2020/12/22 02:12:51;;;;;;;1.23;1.13;;;;;;;7.29;95.33;100556.06;5053017;28;20493;-71
2020/12/22 02:15:17;;;;;;;0.83;0.83;;;;;;;7.31;95.73;100548.50;5053391;28;20465;-70
2020/12/22 02:17:45;;;;;;;1.03;0.93;;;;;;;7.20;96.37;100541.56;5053409;28;20504;-71
2020/12/22 02:20:13;;;;;;;5.43;2.27;;;;;;;7.20;96.82;100544.25;5053103;28;20820;-71
2020/12/22 02:22:40;;;;;;;5.07;2.10;;;;;;;7.19;97.46;100542.66;5052608;28;20430;-70
2020/12/22 02:25:14;;;;;;;2.20;2.07;;;;;;;7.15;97.14;100528.13;5052969;28;20548;-71
2020/12/22 02:27:40;;;;;;;0.80;0.60;;;;;;;7.10;98.00;100520.09;5053494;28;20460;-71
2020/12/22 02:30:07;;;;;;;0.93;0.40;;;;;;;7.09;98.82;100523.88;5052853;28;20519;-70
2020/12/22 02:32:33;;;;;;;2.93;1.83;;;;;;;7.08;99.54;100509.63;5053083;28;20487;-69
2020/12/22 02:34:59;;;;;;;3.30;1.17;;;;;;;7.04;100.00;100513.16;5053166;28;20446;-70
2020/12/22 02:37:26;;;;;;;0.63;0.63;;;;;;;7.07;100.00;100507.19;5052791;28;20450;-70
2020/12/22 02:39:53;;;;;;;9.53;1.50;;;;;;;6.98;100.00;100498.88;5052999;28;20484;-70
2020/12/22 02:42:19;;;;;;;2.50;0.80;;;;;;;7.01;100.00;100500.22;5053025;28;20458;-70
2020/12/22 02:44:45;;;;;;;1.30;0.90;;;;;;;7.00;100.00;100487.84;5052774;28;20853;-70
2020/12/22 02:47:13;;;;;;;1.60;1.47;;;;;;;6.99;100.00;100488.91;5053037;28;20486;-70
2020/12/22 02:49:39;;;;;;;1.70;1.60;;;;;;;6.99;100.00;100475.44;5053039;28;20450;-70
2020/12/22 02:52:06;;;;;;;0.63;0.63;;;;;;;7.01;100.00;100478.69;5052857;28;20508;-70
2020/12/22 02:54:32;;;;;;;3.13;1.50;;;;;;;7.02;100.00;100474.91;5052614;28;20835;-70
2020/12/22 02:56:59;;;;;;;0.40;0.40;;;;;;;7.02;100.00;100469.50;5053185;28;20474;-69
2020/12/22 02:59:25;;;;;;;0.60;0.57;;;;;;;6.97;100.00;100464.16;5052913;28;20797;-70
2020/12/22 03:01:52;;;;;;;2.70;0.93;;;;;;;6.94;100.00;100472.81;5052813;28;20466;-70
2020/12/22 03:04:18;;;;;;;2.20;1.33;;;;;;;6.96;100.00;100471.44;5052518;28;20927;-70
2020/12/22 03:06:45;;;;;;;0.60;0.40;;;;;;;6.97;100.00;100456.91;5052550;28;20446;-70
2020/12/22 03:09:11;;;;;;;8.47;1.37;;;;;;;6.99;100.00;100453.91;5052885;28;20446;-70
2020/12/22 03:11:37;;;;;;;2.10;0.97;;;;;;;6.92;100.00;100451.53;5052629;28;20498;-70
2020/12/22 03:14:04;;;;;;;2.33;1.23;;;;;;;6.98;100.00;100436.16;5052836;28;20442;-69
2020/12/22 03:16:30;;;;;;;3.17;1.10;;;;;;;6.89;100.00;100435.94;5052745;28;20464;-69
2020/12/22 03:18:56;;;;;;;1.57;0.77;;;;;;;6.89;100.00;100437.84;5052778;28;20496;-70
2020/12/22 03:21:23;;;;;;;2.00;1.90;;;;;;;6.88;100.00;100441.63;5052355;28;20509;-70
2020/12/22 03:23:49;;;;;;;0.60;0.60;;;;;;;6.90;100.00;100423.28;5052724;28;20508;-69
2020/12/22 03:26:15;;;;;;;0.40;0.30;;;;;;;6.85;100.00;100420.63;5052699;28;20473;-69
2020/12/22 03:28:41;;;;;;;0.40;0.30;;;;;;;6.89;100.00;100410.91;5052612;28;20531;-70
2020/12/22 03:31:08;;;;;;;0.80;0.77;;;;;;;6.89;100.00;100408.22;5052249;28;21006;-70
2020/12/22 03:33:34;;;;;;;0.63;0.50;;;;;;;6.93;100.00;100398.50;5052481;28;20473;-70
2020/12/22 03:36:00;;;;;;;2.73;1.40;;;;;;;6.92;100.00;100399.59;5055505;28;20441;-70
2020/12/22 03:38:28;;;;;;;0.90;0.90;;;;;;;6.97;100.00;100391.47;5055970;28;20493;-70
2020/12/22 03:40:54;;;;;;;1.47;1.37;;;;;;;6.95;100.00;100397.16;5055920;28;20477;-70
2020/12/22 03:43:20;;;;;;;1.13;1.03;;;;;;;6.92;100.00;100394.22;5056169;28;20855;-70
2020/12/22 03:45:48;;;;;;;0.67;0.50;;;;;;;6.92;100.00;100384.25;5056149;28;20876;-70
2020/12/22 03:48:15;;;;;;;1.13;0.50;;;;;;;6.96;100.00;100371.03;5056083;28;20438;-70
2020/12/22 03:50:41;;;;;;;0.60;0.60;;;;;;;6.98;100.00;100377.72;5055999;28;20466;-69
2020/12/22 03:53:08;;;;;;;0.53;0.50;;;;;;;6.96;100.00;100360.25;5055981;28;20516;-70
2020/12/22 03:55:34;;;;;;;2.87;0.87;;;;;;;7.00;100.00;100351.31;5055614;28;20450;-70
2020/12/22 03:58:00;;;;;;;12.60;1.40;;;;;;;7.01;100.00;100344.03;5055951;28;20935;-70
2020/12/22 04:00:26;;;;;;;1.23;0.90;;;;;;;7.01;100.00;100342.16;5055433;28;21009;-70
2020/12/22 04:02:52;;;;;;;0.70;0.63;;;;;;;7.05;100.00;100339.72;5055768;28;20827;-70
2020/12/22 04:05:19;;;;;;;1.07;1.07;;;;;;;7.03;100.00;100328.41;5055828;28;20828;-68
2020/12/22 04:07:46;;;;;;;1.33;0.60;;;;;;;7.08;100.00;100336.44;5055760;28;20442;-70
2020/12/22 04:10:12;;;;;;;0.60;0.50;;;;;;;7.06;100.00;100317.88;5055367;28;20497;-71
2020/12/22 04:12:38;;;;;;;0.60;0.40;;;;;;;7.10;100.00;100334.25;5055272;28;21023;-71
2020/12/22 04:15:05;;;;;;;4.60;2.40;;;;;;;7.13;100.00;100311.34;5055282;28;21032;-71
2020/12/22 04:17:32;;;;;;;1.27;0.70;;;;;;;7.14;100.00;100299.50;5055536;28;20493;-72
2020/12/22 04:19:58;;;;;;;0.60;0.60;;;;;;;7.15;100.00;100296.50;5055168;28;20450;-71
2020/12/22 04:22:25;;;;;;;1.47;0.40;;;;;;;7.18;100.00;100285.16;5056979;28;20422;-71
2020/12/22 04:24:51;;;;;;;2.30;0.63;;;;;;;7.20;100.00;100293.75;5055427;28;20477;-71
2020/12/22 04:27:17;;;;;;;1.10;1.00;;;;;;;7.24;100.00;100299.38;5055012;28;20978;-71
2020/12/22 04:29:43;;;;;;;6.93;1.13;;;;;;;7.26;100.00;100292.63;5055339;28;20899;-71
2020/12/22 04:32:10;;;;;;;1.03;1.03;;;;;;;7.25;100.00;100295.59;5055227;28;20525;-72
2020/12/22 04:34:36;;;;;;;1.07;0.90;;;;;;;7.27;100.00;100280.75;5055233;28;20442;-71
2020/12/22 04:37:02;;;;;;;1.90;1.13;;;;;;;7.30;100.00;100280.19;5055447;28;20478;-72
2020/12/22 04:39:29;;;;;;;0.40;0.20;;;;;;;7.34;100.00;100272.31;5054870;28;20485;-71
2020/12/22 04:41:57;;;;;;;1.13;0.83;;;;;;;7.33;100.00;100260.75;5055157;28;20512;-72
2020/12/22 04:44:23;;;;;;;1.57;1.43;;;;;;;7.36;100.00;100253.19;5054907;28;20478;-71
2020/12/22 04:46:51;;;;;;;1.03;0.70;;;;;;;7.43;100.00;100264.41;5054564;28;20453;-71
2020/12/22 04:49:21;;;;;;;0.47;0.33;;;;;;;7.43;100.00;100259.81;5054886;28;20445;-71
2020/12/22 04:51:50;;;;;;;0.53;0.50;;;;;;;7.47;100.00;100255.47;5054691;28;20539;-72
2020/12/22 04:54:18;;;;;;;0.60;0.50;;;;;;;7.46;100.00;100258.44;5054538;28;20993;-71
2020/12/22 04:56:45;;;;;;;3.20;1.97;;;;;;;7.49;100.00;100258.69;5054813;28;20474;-71
2020/12/22 04:59:13;;;;;;;8.90;0.83;;;;;;;7.51;100.00;100251.09;5054758;28;20461;-72
2020/12/22 05:01:41;;;;;;;0.60;0.60;;;;;;;7.51;100.00;100253.00;5054346;28;20462;-71
2020/12/22 05:04:10;;;;;;;0.73;0.63;;;;;;;7.54;100.00;100255.13;5053816;28;20470;-71
2020/12/22 05:06:36;;;;;;;1.50;0.80;;;;;;;7.55;100.00;100251.34;5054635;28;20498;-71
2020/12/22 05:09:03;;;;;;;2.67;1.60;;;;;;;7.52;100.00;100252.69;5054311;28;20485;-71
2020/12/22 05:11:30;;;;;;;16.57;0.90;;;;;;;7.58;100.00;100248.88;5054142;28;20465;-71
2020/12/22 05:13:58;;;;;;;0.40;0.30;;;;;;;7.66;100.00;100244.72;5054135;28;20478;-71
2020/12/22 05:16:26;;;;;;;1.13;1.03;;;;;;;7.63;100.00;100237.22;5054388;28;20508;-71
2020/12/22 05:18:54;;;;;;;8.93;1.67;;;;;;;7.62;100.00;100240.22;5054401;28;20472;-71
2020/12/22 05:21:20;;;;;;;1.77;1.67;;;;;;;7.59;100.00;100223.50;5053990;28;20555;-71
2020/12/22 05:23:48;;;;;;;1.30;1.10;;;;;;;7.60;100.00;100210.84;5054279;28;20474;-71
2020/12/22 05:26:16;;;;;;;1.10;1.03;;;;;;;7.66;100.00;100214.25;5054267;28;20445;-71
2020/12/22 05:28:42;;;;;;;0.40;0.30;;;;;;;7.70;100.00;100202.63;5053934;28;20476;-71
2020/12/22 05:31:13;;;;;;;4.00;2.40;;;;;;;7.73;100.00;100203.91;5054108;28;20567;-71
2020/12/22 05:33:42;;;;;;;1.77;0.97;;;;;;;7.75;100.00;100202.56;5054338;28;20466;-71
2020/12/22 05:36:08;;;;;;;0.70;0.63;;;;;;;7.77;100.00;100205.75;5054074;28;20515;-71
2020/12/22 05:38:36;;;;;;;2.63;1.17;;;;;;;7.78;100.00;100203.84;5054182;28;20442;-71
2020/12/22 05:41:04;;;;;;;0.70;0.60;;;;;;;7.79;100.00;100198.19;5053912;28;20489;-71
2020/12/22 05:43:37;;;;;;;0.40;0.30;;;;;;;7.83;100.00;100192.97;5053554;28;20870;-71
2020/12/22 05:46:03;;;;;;;0.70;0.63;;;;;;;7.84;100.00;100190.00;5053932;28;20426;-71
2020/12/22 05:48:30;;;;;;;1.20;1.10;;;;;;;7.89;100.00;100180.25;5053759;28;20950;-71
2020/12/22 05:51:01;;;;;;;1.07;0.47;;;;;;;7.91;100.00;100188.84;5053716;28;20463;-71
2020/12/22 05:53:29;;;;;;;5.03;1.83;;;;;;;7.92;100.00;100183.13;5053677;28;20478;-71
2020/12/22 05:55:55;;;;;;;0.67;0.67;;;;;;;7.99;100.00;100177.38;5053721;28;20446;-71
2020/12/22 05:58:30;;;;;;;0.80;0.73;;;;;;;8.01;100.00;100172.47;5052849;28;20446;-71
2020/12/22 06:00:56;;;;;;;2.90;2.70;;;;;;;8.04;100.00;100166.50;5053530;28;20801;-71
2020/12/22 06:03:23;;;;;;;1.10;0.90;;;;;;;8.07;100.00;100160.53;5053593;28;20466;-71
2020/12/22 06:05:50;;;;;;;1.70;0.70;;;;;;;8.09;100.00;100161.81;5053584;28;20482;-71
2020/12/22 06:08:17;;;;;;;0.90;0.73;;;;;;;8.11;100.00;100169.66;5053168;28;20457;-71
2020/12/22 06:10:44;;;;;;;0.53;0.53;;;;;;;8.13;100.00;100164.75;5053396;28;20462;-71
2020/12/22 06:13:12;;;;;;;0.83;0.40;;;;;;;8.15;100.00;100167.97;5053644;28;20513;-70
2020/12/22 06:15:39;;;;;;;1.40;0.73;;;;;;;8.23;100.00;100163.78;5053398;28;20501;-70
2020/12/22 06:18:06;;;;;;;1.20;0.93;;;;;;;8.28;100.00;100163.72;5053393;28;20442;-70
2020/12/22 06:20:33;;;;;;;0.93;0.63;;;;;;;8.33;100.00;100153.63;5053017;28;20482;-69
2020/12/22 06:23:01;;;;;;;0.77;0.77;;;;;;;8.38;100.00;100157.38;5053343;28;20422;-69
2020/12/22 06:25:28;;;;;;;0.77;0.77;;;;;;;8.41;100.00;100157.56;5053242;28;20438;-70
2020/12/22 06:27:54;;;;;;;1.30;1.07;;;;;;;8.45;100.00;100145.06;5053243;28;20443;-70
2020/12/22 06:30:31;;;;;;;1.73;0.83;;;;;;;8.52;100.00;100153.59;5053107;28;20466;-70
2020/12/22 06:33:16;;;;;;;0.50;0.40;;;;;;;8.54;100.00;100142.47;5053139;28;20555;-70
2020/12/22 06:35:59;;;;;;;0.40;0.30;;;;;;;8.53;100.00;100136.28;5053199;28;20461;-70
2020/12/22 06:38:43;;;;;;;0.50;0.40;;;;;;;8.64;100.00;100138.81;5053116;28;20430;-69
2020/12/22 06:41:09;;;;;;;5.20;1.73;;;;;;;8.66;100.00;100140.09;5053130;28;20489;-69
2020/12/22 06:43:42;;;;;;;0.67;0.67;;;;;;;8.65;100.00;100122.31;5053025;28;20461;-69
2020/12/22 06:46:09;;;;;;;0.40;0.33;;;;;;;8.73;100.00;100129.72;5053067;28;20488;-69
2020/12/22 06:48:45;;;;;;;0.50;0.40;;;;;;;8.77;100.00;100129.91;5053084;28;20499;-68
2020/12/22 06:51:22;;;;;;;0.63;0.63;;;;;;;8.81;100.00;100131.72;5053206;28;20462;-68
2020/12/22 06:53:49;;;;;;;0.60;0.50;;;;;;;8.88;100.00;100127.81;5052907;28;20485;-68
2020/12/22 06:56:39;;;;;;;1.37;1.23;;;;;;;8.92;100.00;100121.50;5053307;28;20465;-68
2020/12/22 06:59:06;;;;;;;2.00;0.57;;;;;;;9.01;100.00;100132.41;5053015;28;20426;-66
2020/12/22 07:01:34;;;;;;;0.60;0.60;;;;;;;9.06;100.00;100127.69;5052955;28;20493;-69
2020/12/22 07:04:27;;;;;;;0.40;0.30;;;;;;;9.06;100.00;100116.06;5053073;28;20443;-68
2020/12/22 07:06:58;;;;;;;0.53;0.50;;;;;;;9.07;100.00;100118.50;5052607;28;20500;-68
2020/12/22 07:09:27;;;;;;;0.40;0.40;;;;;;;9.14;100.00;100125.38;5054827;28;20792;-69
2020/12/22 07:11:55;;;;;;;0.40;0.30;;;;;;;9.16;100.00;100125.88;5056562;28;20454;-69
2020/12/22 07:14:24;;;;;;;1.30;1.20;;;;;;;9.22;100.00;100119.28;5056737;28;20480;-68
2020/12/22 07:16:53;;;;;;;0.40;0.30;;;;;;;9.28;100.00;100118.03;5056406;28;20449;-69
2020/12/22 07:19:23;;;;;;;1.70;0.87;;;;;;;9.28;100.00;100124.25;5056767;28;20445;-68
2020/12/22 07:21:52;;;;;;;1.57;0.50;;;;;;;9.28;100.00;100112.63;5056398;28;20473;-68
2020/12/22 07:24:18;;;;;;;0.40;0.30;;;;;;;9.30;100.00;100110.44;5056568;28;20446;-68
2020/12/22 07:26:46;;;;;;;0.60;0.50;;;;;;;9.34;100.00;100116.81;5056270;28;20560;-68
2020/12/22 07:29:12;;;;;;;0.50;0.50;;;;;;;9.38;100.00;100122.41;5056599;28;20493;-69
2020/12/22 07:31:39;;;;;;;0.40;0.30;;;;;;;9.41;100.00;100102.91;5056308;28;20450;-69
2020/12/22 07:34:06;;;;;;;1.07;0.50;;;;;;;9.38;100.00;100100.81;5056380;28;20493;-68
2020/12/22 07:36:33;;;;;;;0.40;0.30;;;;;;;9.41;100.00;100113.72;5056009;28;20873;-68
2020/12/22 07:39:21;;;;;;;0.57;0.47;;;;;;;9.43;100.00;100101.50;5056035;28;20442;-68
2020/12/22 07:41:48;;;;;;;0.40;0.30;;;;;;;9.47;100.00;100112.47;5055896;28;20464;-68
2020/12/22 07:44:16;;;;;;;0.40;0.30;;;;;;;9.51;100.00;100116.19;5056466;28;20460;-69
2020/12/22 07:46:44;;;;;;;0.70;0.57;;;;;;;9.55;100.00;100112.56;5056201;28;20466;-68
2020/12/22 07:49:11;;;;;;;0.53;0.53;;;;;;;9.54;100.00;100102.06;5055814;28;20959;-68
2020/12/22 07:51:42;;;;;;;0.40;0.30;;;;;;;9.58;100.00;100100.34;5055926;28;20504;-70
2020/12/22 07:54:09;;;;;;;0.80;0.30;;;;;;;9.63;100.00;100104.84;5056005;28;20494;-70
2020/12/22 07:56:37;;;;;;;0.40;0.30;;;;;;;9.69;100.00;100109.81;5055643;28;20438;-70
2020/12/22 07:59:06;;;;;;;0.40;0.30;;;;;;;9.71;100.00;100112.22;5055989;28;20489;-70
2020/12/22 08:01:43;;;;;;;0.50;0.40;;;;;;;9.73;100.00;100110.78;5055791;28;20466;-70
2020/12/22 08:04:13;;;;;;;0.40;0.30;;;;;;;9.76;100.00;100107.47;5055884;28;20823;-69
2020/12/22 08:06:40;;;;;;;0.40;0.30;;;;;;;9.77;100.00;100114.47;5055763;28;20449;-70
2020/12/22 08:09:07;;;;;;;0.40;0.30;;;;;;;9.82;100.00;100116.25;5055674;28;20450;-69
2020/12/22 08:11:33;;;;;;;0.40;0.40;;;;;;;9.77;100.00;100117.19;5055281;28;20494;-69
2020/12/22 08:14:01;;;;;;;0.40;0.30;;;;;;;9.84;100.00;100119.47;5055606;28;20517;-70
2020/12/22 08:16:31;;;;;;;1.00;0.80;;;;;;;9.93;100.00;100122.25;5055573;28;20943;-70
2020/12/22 08:18:58;;;;;;;0.40;0.30;;;;;;;9.97;100.00;100117.81;5055538;28;20488;-69
2020/12/22 08:21:26;;;;;;;0.40;0.30;;;;;;;9.99;100.00;100127.22;5054410;28;20470;-70
2020/12/22 08:23:53;;;;;;;0.77;0.40;;;;;;;10.06;100.00;100116.75;5055427;28;20485;-69
2020/12/22 08:26:20;;;;;;;0.40;0.30;;;;;;;10.12;100.00;100114.72;5055406;28;20546;-69
2020/12/22 08:28:54;;;;;;;4.10;0.40;;;;;;;10.12;100.00;100109.31;5055371;28;20529;-69
2020/12/22 08:31:25;;;;;;;0.70;0.43;;;;;;;10.22;100.00;100125.28;5055168;28;20470;-70
2020/12/22 08:33:54;;;;;;;0.40;0.30;;;;;;;10.25;100.00;100123.91;5054863;28;20525;-69
2020/12/22 08:36:22;;;;;;;0.40;0.30;;;;;;;10.31;100.00;100118.06;5055181;28;20504;-69
2020/12/22 08:38:49;;;;;;;0.80;0.50;;;;;;;10.43;100.00;100127.50;5055147;28;20442;-70
2020/12/22 08:41:18;;;;;;;0.40;0.30;;;;;;;10.42;100.00;100132.13;5055233;28;20466;-69
2020/12/22 08:43:51;;;;;;;0.40;0.30;;;;;;;10.50;100.00;100146.81;5054813;28;20448;-69
2020/12/22 08:46:18;;;;;;;0.50;0.30;;;;;;;10.59;100.00;100142.25;5055103;28;20455;-70
2020/12/22 08:48:44;;;;;;;0.50;0.40;;;;;;;10.58;100.00;100133.31;5055008;28;20473;-70
2020/12/22 08:51:11;;;;;;;0.50;0.50;;;;;;;10.63;100.00;100145.13;5054884;28;20840;-70
2020/12/22 08:53:48;;;;;;;0.50;0.30;;;;;;;10.67;100.00;100152.31;5054516;28;20998;-71
2020/12/22 08:56:15;;;;;;;0.40;0.30;;;;;;;10.68;100.00;100147.69;5054856;28;20430;-70
2020/12/22 08:58:54;;;;;;;0.80;0.70;;;;;;;10.72;100.00;100154.09;5054770;28;20443;-71
2020/12/22 09:01:21;;;;;;;0.50;0.40;;;;;;;10.73;100.00;100156.47;5054317;28;20983;-69
2020/12/22 09:03:51;;;;;;;0.40;0.30;;;;;;;10.72;100.00;100165.72;5054431;28;20963;-69
2020/12/22 09:06:18;;;;;;;0.40;0.30;;;;;;;10.74;100.00;100163.47;5054632;28;20449;-70
2020/12/22 09:08:46;;;;;;;0.40;0.30;;;;;;;10.79;100.00;100167.97;5054591;28;20442;-69
2020/12/22 09:11:18;;;;;;;0.40;0.30;;;;;;;10.83;100.00;100167.03;5039016;28;20459;-69
2020/12/22 09:13:44;;;;;;;0.40;0.30;;;;;;;10.88;100.00;100168.78;5021676;28;20591;-69
2020/12/22 09:16:11;;;;;;;0.40;0.30;;;;;;;10.92;100.00;100166.25;5033023;28;20528;-68
2020/12/22 09:18:37;;;;;;;0.40;0.40;;;;;;;10.93;100.00;100167.84;5032395;28;20474;-68
2020/12/22 09:21:05;;;;;;;1.63;0.67;;;;;;;11.02;100.00;100168.69;5034259;28;20486;-68
2020/12/22 09:23:32;;;;;;;0.40;0.20;;;;;;;11.03;100.00;100178.44;5033920;28;20871;-68
2020/12/22 09:25:58;;;;;;;0.40;0.23;;;;;;;11.07;100.00;100169.34;5045957;28;20491;-69
2020/12/22 09:28:24;;;;;;;0.40;0.30;;;;;;;11.08;100.00;100175.56;5054125;28;20491;-69
2020/12/22 09:30:50;;;;;;;0.40;0.30;;;;;;;11.16;100.00;100179.44;5053846;28;20463;-69
2020/12/22 09:33:17;;;;;;;0.50;0.50;;;;;;;11.25;100.00;100164.78;5054002;28;20478;-69
2020/12/22 09:35:43;;;;;;;0.50;0.30;;;;;;;11.32;100.00;100162.38;5054491;28;20485;-69
2020/12/22 09:38:09;;;;;;;0.40;0.30;;;;;;;11.34;100.00;100186.50;5054033;28;20525;-69
2020/12/22 09:40:36;;;;;;;0.40;0.30;;;;;;;11.37;100.00;100180.41;5053906;28;20472;-70
2020/12/22 09:43:02;;;;;;;0.40;0.30;;;;;;;11.42;100.00;100176.75;5053918;28;20439;-70
2020/12/22 09:45:28;;;;;;;0.40;0.30;;;;;;;11.45;100.00;100178.84;5053901;28;20473;-70
2020/12/22 09:47:54;;;;;;;0.40;0.30;;;;;;;11.57;100.00;100173.59;5053895;28;20473;-70
2020/12/22 09:50:20;;;;;;;0.63;0.63;;;;;;;11.62;100.00;100171.53;5053468;28;20462;-70
2020/12/22 09:52:47;;;;;;;0.43;0.30;;;;;;;11.67;100.00;100184.13;5053418;28;20524;-70
2020/12/22 09:55:13;;;;;;;0.90;0.83;;;;;;;11.75;100.00;100180.63;5053727;28;20438;-71
2020/12/22 09:57:40;;;;;;;0.50;0.30;;;;;;;11.75;100.00;100196.91;5052771;28;20442;-71
2020/12/22 10:00:06;;;;;;;0.40;0.30;;;;;;;11.82;100.00;100197.28;5052977;28;20462;-71
2020/12/22 10:02:32;;;;;;;0.40;0.30;;;;;;;11.88;100.00;100199.81;5052933;28;20479;-71
2020/12/22 10:04:58;;;;;;;0.40;0.30;;;;;;;11.92;100.00;100187.22;5052557;28;20443;-73
2020/12/22 10:07:25;;;;;;;2.10;1.97;;;;;;;11.97;100.00;100195.19;5052639;28;20442;-71
2020/12/22 10:09:51;;;;;;;0.93;0.50;;;;;;;11.97;100.00;100198.72;5052409;28;20804;-70
2020/12/22 10:12:17;;;;;;;1.27;1.17;;;;;;;11.96;100.00;100196.31;5052366;28;20822;-70
2020/12/22 10:14:44;;;;;;;1.10;1.00;;;;;;;12.03;100.00;100191.19;5021199;28;20455;-70
2020/12/22 10:17:10;;;;;;;0.40;0.40;;;;;;;12.11;100.00;100198.53;5032876;28;20831;-71
2020/12/22 10:19:36;;;;;;;1.00;0.50;;;;;;;12.15;100.00;100188.63;5032733;28;20466;-71
2020/12/22 10:22:02;;;;;;;0.40;0.30;;;;;;;12.24;100.00;100197.56;5032531;28;20522;-70
2020/12/22 10:24:29;;;;;;;0.40;0.30;;;;;;;12.27;100.00;100194.22;5032391;28;20999;-71
2020/12/22 10:26:55;;;;;;;0.60;0.60;;;;;;;12.28;100.00;100187.66;5032694;28;20975;-72
2020/12/22 10:29:21;;;;;;;0.57;0.50;;;;;;;12.25;100.00;100191.00;5032554;28;20819;-71
2020/12/22 10:31:48;;;;;;;2.70;1.40;;;;;;;12.28;100.00;100198.53;5032551;28;20572;-70
2020/12/22 10:34:14;;;;;;;1.10;0.90;;;;;;;12.32;100.00;100199.47;5032560;28;20518;-71
2020/12/22 10:36:40;;;;;;;0.67;0.67;;;;;;;12.36;100.00;100205.06;5032201;28;20947;-72
2020/12/22 10:39:06;;;;;;;0.90;0.50;;;;;;;12.37;100.00;100198.50;5032284;28;20447;-72
2020/12/22 10:41:34;;;;;;;6.73;1.33;;;;;;;12.42;100.00;100202.97;5032469;28;20491;-71
2020/12/22 10:44:01;;;;;;;1.00;1.00;;;;;;;12.36;100.00;100222.16;5035110;28;20510;-72
2020/12/22 10:46:27;;;;;;;0.40;0.30;;;;;;;12.40;100.00;100205.22;5038727;28;20901;-71
2020/12/22 10:48:54;;;;;;;1.47;0.93;;;;;;;12.38;100.00;100209.03;5038807;28;20963;-72
2020/12/22 10:51:20;;;;;;;0.70;0.30;;;;;;;12.38;100.00;100216.41;5038597;28;20463;-71
2020/12/22 10:53:46;;;;;;;0.40;0.30;;;;;;;12.44;100.00;100211.59;5038969;28;20493;-71
2020/12/22 10:56:14;;;;;;;0.83;0.53;;;;;;;12.54;100.00;100220.22;5039205;28;20461;-71
2020/12/22 10:58:41;;;;;;;1.00;0.43;;;;;;;12.69;100.00;100220.81;5038677;28;20892;-72
2020/12/22 11:01:08;;;;;;;0.40;0.30;;;;;;;12.82;100.00;100212.44;5038560;28;20467;-72
2020/12/22 11:03:34;;;;;;;0.40;0.30;;;;;;;12.80;100.00;100227.50;5038837;28;20485;-71
2020/12/22 11:06:04;;;;;;;0.40;0.30;;;;;;;12.89;100.00;100214.69;5038587;28;20913;-71
2020/12/22 11:08:30;;;;;;;5.00;1.17;;;;;;;12.86;100.00;100218.03;5038605;28;20955;-71
2020/12/22 11:10:56;;;;;;;0.60;0.30;;;;;;;12.88;100.00;100227.47;5035739;22;21021;-69
2020/12/22 11:13:23;;;;;;;1.23;0.67;;;;;;;12.91;100.00;100238.81;4999341;28;20488;-69
2020/12/22 11:15:49;;;;;;;1.00;0.70;;;;;;;12.92;100.00;100224.88;4998813;28;21004;-68
2020/12/22 11:18:16;;;;;;;0.70;0.30;;;;;;;12.96;100.00;100233.19;4999403;28;20445;-68
2020/12/22 11:20:42;;;;;;;0.50;0.40;;;;;;;12.94;100.00;100238.16;4999233;28;20468;-67
2020/12/22 11:23:09;;;;;;;2.70;1.13;;;;;;;12.96;100.00;100239.41;4999011;28;20467;-66
2020/12/22 11:25:35;;;;;;;0.87;0.40;;;;;;;12.97;100.00;100237.50;4999416;28;20881;-69